sensor_id;sensor_type;location;lat;lon;timestamp;temperature;humidity
9824;DHT22;4951;50.778;7.196;2023-03-25T00:02:19;9.70;99.90
9824;DHT22;4951;50.778;7.196;2023-03-25T00:05:04;9.70;78.10
9824;DHT22;4951;50.778;7.196;2023-03-25T00:07:52;9.70;1.00
9824;DHT22;4951;50.778;7.196;2023-03-25T00:10:37;9.70;1.00
9824;DHT22;4951;50.778;7.196;2023-03-25T00:13:23;9.70;1.00
9824;DHT22;4951;50.778;7.196;2023-03-25T00:15:51;9.70;1.00
9824;DHT22;4951;50.778;7.196;2023-03-25T00:18:53;9.60;1.00
9824;DHT22;4951;50.778;7.196;2023-03-25T00:21:47;9.50;1.00
9824;DHT22;4951;50.778;7.196;2023-03-25T00:24:38;9.40;1.00
9824;DHT22;4951;50.778;7.196;2023-03-25T00:27:10;9.30;99.90
9824;DHT22;4951;50.778;7.196;2023-03-25T00:29:44;9.20;99.90
9824;DHT22;4951;50.778;7.196;2023-03-25T00:32:35;9.20;1.00
9824;DHT22;4951;50.778;7.196;2023-03-25T00:35:07;9.20;1.00
9824;DHT22;4951;50.778;7.196;2023-03-25T00:38:30;9.20;1.00
9824;DHT22;4951;50.778;7.196;2023-03-25T00:41:16;9.20;99.90
9824;DHT22;4951;50.778;7.196;2023-03-25T00:43:59;9.10;99.90
9824;DHT22;4951;50.778;7.196;2023-03-25T00:46:31;9.10;99.90
9824;DHT22;4951;50.778;7.196;2023-03-25T00:49:05;9.20;1.00
9824;DHT22;4951;50.778;7.196;2023-03-25T00:51:38;9.20;99.90
9824;DHT22;4951;50.778;7.196;2023-03-25T00:54:42;9.20;1.00
9824;DHT22;4951;50.778;7.196;2023-03-25T00:57:29;9.30;99.90
9824;DHT22;4951;50.778;7.196;2023-03-25T01:05:47;9.30;1.00
9824;DHT22;4951;50.778;7.196;2023-03-25T01:08:23;9.30;1.00
9824;DHT22;4951;50.778;7.196;2023-03-25T01:10:57;9.30;1.00
9824;DHT22;4951;50.778;7.196;2023-03-25T01:13:24;9.30;1.00
9824;DHT22;4951;50.778;7.196;2023-03-25T01:16:41;9.30;1.00
9824;DHT22;4951;50.778;7.196;2023-03-25T01:19:30;9.30;1.00
9824;DHT22;4951;50.778;7.196;2023-03-25T01:25:07;9.30;1.00
9824;DHT22;4951;50.778;7.196;2023-03-25T01:27:38;9.30;1.00
9824;DHT22;4951;50.778;7.196;2023-03-25T01:30:14;9.30;1.00
9824;DHT22;4951;50.778;7.196;2023-03-25T01:32:47;9.30;1.00
9824;DHT22;4951;50.778;7.196;2023-03-25T01:35:21;9.30;1.00
9824;DHT22;4951;50.778;7.196;2023-03-25T01:41:14;9.30;1.00
9824;DHT22;4951;50.778;7.196;2023-03-25T01:44:04;9.30;1.00
9824;DHT22;4951;50.778;7.196;2023-03-25T01:46:54;9.30;1.00
9824;DHT22;4951;50.778;7.196;2023-03-25T01:49:35;9.30;1.00
9824;DHT22;4951;50.778;7.196;2023-03-25T01:52:14;9.30;1.00
9824;DHT22;4951;50.778;7.196;2023-03-25T01:54:47;9.30;1.00
9824;DHT22;4951;50.778;7.196;2023-03-25T01:57:31;9.30;1.00
9824;DHT22;4951;50.778;7.196;2023-03-25T02:00:33;9.30;1.00
9824;DHT22;4951;50.778;7.196;2023-03-25T02:03:31;9.20;99.90
9824;DHT22;4951;50.778;7.196;2023-03-25T02:06:29;9.20;99.90
9824;DHT22;4951;50.778;7.196;2023-03-25T02:09:06;9.20;1.00
9824;DHT22;4951;50.778;7.196;2023-03-25T02:11:50;9.20;1.00
9824;DHT22;4951;50.778;7.196;2023-03-25T02:14:47;9.20;99.90
9824;DHT22;4951;50.778;7.196;2023-03-25T02:21:27;9.20;99.90
9824;DHT22;4951;50.778;7.196;2023-03-25T02:27:15;9.20;99.90
9824;DHT22;4951;50.778;7.196;2023-03-25T02:36:57;9.20;99.90
9824;DHT22;4951;50.778;7.196;2023-03-25T02:39:37;9.20;99.90
9824;DHT22;4951;50.778;7.196;2023-03-25T02:42:25;9.20;1.00
9824;DHT22;4951;50.778;7.196;2023-03-25T02:45:29;9.20;1.00
9824;DHT22;4951;50.778;7.196;2023-03-25T02:48:18;9.20;1.00
9824;DHT22;4951;50.778;7.196;2023-03-25T02:51:11;9.20;1.00
9824;DHT22;4951;50.778;7.196;2023-03-25T02:53:52;9.10;99.90
9824;DHT22;4951;50.778;7.196;2023-03-25T02:56:49;9.10;99.10
9824;DHT22;4951;50.778;7.196;2023-03-25T02:59:42;9.10;99.90
9824;DHT22;4951;50.778;7.196;2023-03-25T03:02:32;9.00;99.90
9824;DHT22;4951;50.778;7.196;2023-03-25T03:05:58;9.10;99.90
9824;DHT22;4951;50.778;7.196;2023-03-25T03:08:42;9.10;99.90
9824;DHT22;4951;50.778;7.196;2023-03-25T03:11:22;9.20;1.00
9824;DHT22;4951;50.778;7.196;2023-03-25T03:14:25;9.20;1.00
9824;DHT22;4951;50.778;7.196;2023-03-25T03:17:31;9.30;1.00
9824;DHT22;4951;50.778;7.196;2023-03-25T03:20:33;9.30;99.90
9824;DHT22;4951;50.778;7.196;2023-03-25T03:23:28;9.30;99.90
9824;DHT22;4951;50.778;7.196;2023-03-25T03:26:03;9.40;87.50
9824;DHT22;4951;50.778;7.196;2023-03-25T03:28:54;9.40;1.00
9824;DHT22;4951;50.778;7.196;2023-03-25T03:31:53;9.40;1.00
9824;DHT22;4951;50.778;7.196;2023-03-25T03:34:52;9.50;99.90
9824;DHT22;4951;50.778;7.196;2023-03-25T03:37:32;9.40;1.00
9824;DHT22;4951;50.778;7.196;2023-03-25T03:40:18;9.50;99.90
9824;DHT22;4951;50.778;7.196;2023-03-25T03:42:50;9.50;99.90
9824;DHT22;4951;50.778;7.196;2023-03-25T03:45:36;9.50;99.90
9824;DHT22;4951;50.778;7.196;2023-03-25T03:48:18;9.50;99.90
9824;DHT22;4951;50.778;7.196;2023-03-25T03:50:55;9.50;1.00
9824;DHT22;4951;50.778;7.196;2023-03-25T03:53:28;9.40;1.00
9824;DHT22;4951;50.778;7.196;2023-03-25T03:56:04;9.40;1.00
9824;DHT22;4951;50.778;7.196;2023-03-25T03:58:36;9.40;1.00
9824;DHT22;4951;50.778;7.196;2023-03-25T04:01:23;9.40;99.90
9824;DHT22;4951;50.778;7.196;2023-03-25T04:04:17;9.40;99.90
9824;DHT22;4951;50.778;7.196;2023-03-25T04:06:56;9.40;35.70
9824;DHT22;4951;50.778;7.196;2023-03-25T04:09:41;9.40;1.00
9824;DHT22;4951;50.778;7.196;2023-03-25T04:12:15;9.40;1.00
9824;DHT22;4951;50.778;7.196;2023-03-25T04:14:58;9.40;1.00
9824;DHT22;4951;50.778;7.196;2023-03-25T04:17:26;9.40;99.90
9824;DHT22;4951;50.778;7.196;2023-03-25T04:19:56;9.40;99.90
9824;DHT22;4951;50.778;7.196;2023-03-25T04:22:26;9.40;99.90
9824;DHT22;4951;50.778;7.196;2023-03-25T04:24:57;9.40;99.90
9824;DHT22;4951;50.778;7.196;2023-03-25T04:27:43;9.40;99.90
9824;DHT22;4951;50.778;7.196;2023-03-25T04:30:15;9.40;99.90
9824;DHT22;4951;50.778;7.196;2023-03-25T04:32:47;9.30;1.00
9824;DHT22;4951;50.778;7.196;2023-03-25T04:35:41;9.30;1.00
9824;DHT22;4951;50.778;7.196;2023-03-25T04:38:29;9.30;99.90
9824;DHT22;4951;50.778;7.196;2023-03-25T04:41:15;9.30;99.90
9824;DHT22;4951;50.778;7.196;2023-03-25T04:43:42;9.30;93.00
9824;DHT22;4951;50.778;7.196;2023-03-25T04:46:36;9.30;1.00
9824;DHT22;4951;50.778;7.196;2023-03-25T04:49:09;9.30;1.00
9824;DHT22;4951;50.778;7.196;2023-03-25T04:51:41;9.30;1.00
9824;DHT22;4951;50.778;7.196;2023-03-25T04:54:15;9.30;1.00
9824;DHT22;4951;50.778;7.196;2023-03-25T04:56:43;9.30;1.00
9824;DHT22;4951;50.778;7.196;2023-03-25T04:59:12;9.30;1.00
9824;DHT22;4951;50.778;7.196;2023-03-25T05:01:46;9.20;1.00
9824;DHT22;4951;50.778;7.196;2023-03-25T05:04:17;9.20;1.00
9824;DHT22;4951;50.778;7.196;2023-03-25T05:10:14;9.30;1.00
9824;DHT22;4951;50.778;7.196;2023-03-25T05:12:58;9.30;1.00
9824;DHT22;4951;50.778;7.196;2023-03-25T05:15:31;9.30;99.90
9824;DHT22;4951;50.778;7.196;2023-03-25T05:18:25;9.30;99.90
9824;DHT22;4951;50.778;7.196;2023-03-25T05:21:07;9.30;1.00
9824;DHT22;4951;50.778;7.196;2023-03-25T05:23:39;9.30;97.90
9824;DHT22;4951;50.778;7.196;2023-03-25T05:26:15;9.30;1.00
9824;DHT22;4951;50.778;7.196;2023-03-25T05:28:56;9.30;1.00
9824;DHT22;4951;50.778;7.196;2023-03-25T05:31:44;9.30;1.00
9824;DHT22;4951;50.778;7.196;2023-03-25T05:34:50;9.30;1.00
9824;DHT22;4951;50.778;7.196;2023-03-25T05:37:19;9.30;1.00
9824;DHT22;4951;50.778;7.196;2023-03-25T05:39:59;9.30;1.00
9824;DHT22;4951;50.778;7.196;2023-03-25T05:42:34;9.20;1.00
9824;DHT22;4951;50.778;7.196;2023-03-25T05:49:13;9.20;1.00
9824;DHT22;4951;50.778;7.196;2023-03-25T05:51:58;9.20;24.20
9824;DHT22;4951;50.778;7.196;2023-03-25T05:54:27;9.20;99.90
9824;DHT22;4951;50.778;7.196;2023-03-25T05:57:00;9.20;99.90
9824;DHT22;4951;50.778;7.196;2023-03-25T05:59:50;9.10;99.90
9824;DHT22;4951;50.778;7.196;2023-03-25T06:02:20;9.10;99.90
9824;DHT22;4951;50.778;7.196;2023-03-25T06:04:52;9.10;99.90
9824;DHT22;4951;50.778;7.196;2023-03-25T06:07:57;9.10;1.00
9824;DHT22;4951;50.778;7.196;2023-03-25T06:10:24;9.10;1.00
9824;DHT22;4951;50.778;7.196;2023-03-25T06:12:51;9.20;1.00
9824;DHT22;4951;50.778;7.196;2023-03-25T06:15:20;9.20;1.00
9824;DHT22;4951;50.778;7.196;2023-03-25T06:17:58;9.30;1.00
9824;DHT22;4951;50.778;7.196;2023-03-25T06:20:30;9.40;1.00
9824;DHT22;4951;50.778;7.196;2023-03-25T06:23:10;9.40;1.00
9824;DHT22;4951;50.778;7.196;2023-03-25T06:25:42;9.40;99.90
9824;DHT22;4951;50.778;7.196;2023-03-25T06:28:19;9.40;99.90
9824;DHT22;4951;50.778;7.196;2023-03-25T06:30:58;9.30;99.90
9824;DHT22;4951;50.778;7.196;2023-03-25T06:33:28;9.40;99.90
9824;DHT22;4951;50.778;7.196;2023-03-25T06:36:07;9.40;99.90
9824;DHT22;4951;50.778;7.196;2023-03-25T06:38:44;9.40;99.90
9824;DHT22;4951;50.778;7.196;2023-03-25T06:41:17;9.50;99.90
9824;DHT22;4951;50.778;7.196;2023-03-25T06:44:00;9.60;42.20
9824;DHT22;4951;50.778;7.196;2023-03-25T06:47:09;9.80;1.00
9824;DHT22;4951;50.778;7.196;2023-03-25T06:49:42;10.00;1.00
9824;DHT22;4951;50.778;7.196;2023-03-25T06:52:10;10.10;99.90
9824;DHT22;4951;50.778;7.196;2023-03-25T06:54:46;10.20;66.00
9824;DHT22;4951;50.778;7.196;2023-03-25T06:57:13;10.30;1.00
9824;DHT22;4951;50.778;7.196;2023-03-25T06:59:45;10.20;1.00
9824;DHT22;4951;50.778;7.196;2023-03-25T07:02:18;10.20;1.00
9824;DHT22;4951;50.778;7.196;2023-03-25T07:04:49;10.20;1.00
9824;DHT22;4951;50.778;7.196;2023-03-25T07:07:22;10.10;36.70
9824;DHT22;4951;50.778;7.196;2023-03-25T07:10:03;9.90;99.90
9824;DHT22;4951;50.778;7.196;2023-03-25T07:13:01;9.90;1.00
9824;DHT22;4951;50.778;7.196;2023-03-25T07:15:49;9.80;1.00
9824;DHT22;4951;50.778;7.196;2023-03-25T07:18:24;9.60;1.00
9824;DHT22;4951;50.778;7.196;2023-03-25T07:20:56;9.40;1.00
9824;DHT22;4951;50.778;7.196;2023-03-25T07:23:26;9.20;1.00
9824;DHT22;4951;50.778;7.196;2023-03-25T07:25:56;8.90;99.90
9824;DHT22;4951;50.778;7.196;2023-03-25T07:28:43;8.70;1.00
9824;DHT22;4951;50.778;7.196;2023-03-25T07:31:16;8.50;99.90
9824;DHT22;4951;50.778;7.196;2023-03-25T07:34:08;8.40;1.00
9824;DHT22;4951;50.778;7.196;2023-03-25T07:36:50;8.30;1.00
9824;DHT22;4951;50.778;7.196;2023-03-25T07:42:27;8.20;99.90
9824;DHT22;4951;50.778;7.196;2023-03-25T07:45:29;8.20;99.90
9824;DHT22;4951;50.778;7.196;2023-03-25T07:47:59;8.20;99.90
9824;DHT22;4951;50.778;7.196;2023-03-25T07:50:30;8.20;99.90
9824;DHT22;4951;50.778;7.196;2023-03-25T07:53:11;8.20;1.00
9824;DHT22;4951;50.778;7.196;2023-03-25T07:55:53;8.20;1.00
9824;DHT22;4951;50.778;7.196;2023-03-25T07:58:20;8.20;1.00
9824;DHT22;4951;50.778;7.196;2023-03-25T08:01:04;8.10;1.00
9824;DHT22;4951;50.778;7.196;2023-03-25T08:03:32;8.10;1.00
9824;DHT22;4951;50.778;7.196;2023-03-25T08:06:08;8.10;99.90
9824;DHT22;4951;50.778;7.196;2023-03-25T08:08:36;8.20;99.90
9824;DHT22;4951;50.778;7.196;2023-03-25T08:11:05;8.20;15.00
9824;DHT22;4951;50.778;7.196;2023-03-25T08:13:33;8.30;1.00
9824;DHT22;4951;50.778;7.196;2023-03-25T08:16:02;8.30;1.00
9824;DHT22;4951;50.778;7.196;2023-03-25T08:18:47;8.30;99.90
9824;DHT22;4951;50.778;7.196;2023-03-25T08:21:19;8.30;1.00
9824;DHT22;4951;50.778;7.196;2023-03-25T08:24:09;8.30;1.00
9824;DHT22;4951;50.778;7.196;2023-03-25T08:26:38;8.40;1.00
9824;DHT22;4951;50.778;7.196;2023-03-25T08:29:05;8.40;1.00
9824;DHT22;4951;50.778;7.196;2023-03-25T08:31:35;8.50;1.00
9824;DHT22;4951;50.778;7.196;2023-03-25T08:34:05;8.50;99.90
9824;DHT22;4951;50.778;7.196;2023-03-25T08:36:48;8.50;1.00
9824;DHT22;4951;50.778;7.196;2023-03-25T08:39:32;8.50;1.00
9824;DHT22;4951;50.778;7.196;2023-03-25T08:42:08;8.50;1.00
9824;DHT22;4951;50.778;7.196;2023-03-25T08:44:37;8.60;1.00
9824;DHT22;4951;50.778;7.196;2023-03-25T08:47:22;8.80;1.00
9824;DHT22;4951;50.778;7.196;2023-03-25T08:49:58;9.20;99.90
9824;DHT22;4951;50.778;7.196;2023-03-25T08:52:34;9.40;1.00
9824;DHT22;4951;50.778;7.196;2023-03-25T08:55:09;9.60;1.00
9824;DHT22;4951;50.778;7.196;2023-03-25T08:57:37;9.70;99.90
9824;DHT22;4951;50.778;7.196;2023-03-25T09:00:07;9.70;1.00
9824;DHT22;4951;50.778;7.196;2023-03-25T09:02:39;9.80;99.90
9824;DHT22;4951;50.778;7.196;2023-03-25T09:05:10;9.90;99.90
9824;DHT22;4951;50.778;7.196;2023-03-25T09:08:17;10.10;1.00
9824;DHT22;4951;50.778;7.196;2023-03-25T09:10:47;10.50;99.90
9824;DHT22;4951;50.778;7.196;2023-03-25T09:13:44;10.90;1.00
9824;DHT22;4951;50.778;7.196;2023-03-25T09:16:19;11.00;14.40
9824;DHT22;4951;50.778;7.196;2023-03-25T09:19:02;11.00;1.00
9824;DHT22;4951;50.778;7.196;2023-03-25T09:21:32;11.00;1.00
9824;DHT22;4951;50.778;7.196;2023-03-25T09:24:00;11.00;1.00
9824;DHT22;4951;50.778;7.196;2023-03-25T09:26:34;10.90;1.00
9824;DHT22;4951;50.778;7.196;2023-03-25T09:29:22;10.90;1.00
9824;DHT22;4951;50.778;7.196;2023-03-25T09:31:55;10.90;1.00
9824;DHT22;4951;50.778;7.196;2023-03-25T09:34:24;11.00;99.90
9824;DHT22;4951;50.778;7.196;2023-03-25T09:36:55;11.20;78.00
9824;DHT22;4951;50.778;7.196;2023-03-25T09:39:24;11.30;1.00
9824;DHT22;4951;50.778;7.196;2023-03-25T09:42:19;11.60;1.00
9824;DHT22;4951;50.778;7.196;2023-03-25T09:44:58;11.80;99.90
9824;DHT22;4951;50.778;7.196;2023-03-25T09:47:40;12.10;1.00
9824;DHT22;4951;50.778;7.196;2023-03-25T09:50:22;12.20;1.00
9824;DHT22;4951;50.778;7.196;2023-03-25T09:53:03;12.20;1.00
9824;DHT22;4951;50.778;7.196;2023-03-25T09:55:41;12.20;1.00
9824;DHT22;4951;50.778;7.196;2023-03-25T09:59:03;12.10;1.00
9824;DHT22;4951;50.778;7.196;2023-03-25T10:02:38;11.80;99.90
9824;DHT22;4951;50.778;7.196;2023-03-25T10:06:39;11.60;41.90
9824;DHT22;4951;50.778;7.196;2023-03-25T10:17:47;11.70;99.90
9824;DHT22;4951;50.778;7.196;2023-03-25T10:20:50;11.70;1.00
9824;DHT22;4951;50.778;7.196;2023-03-25T10:23:36;11.70;1.00
9824;DHT22;4951;50.778;7.196;2023-03-25T10:26:12;12.00;1.00
9824;DHT22;4951;50.778;7.196;2023-03-25T10:29:25;12.30;1.00
9824;DHT22;4951;50.778;7.196;2023-03-25T10:32:24;12.50;1.00
9824;DHT22;4951;50.778;7.196;2023-03-25T10:39:31;12.40;1.00
9824;DHT22;4951;50.778;7.196;2023-03-25T10:42:15;12.40;18.50
9824;DHT22;4951;50.778;7.196;2023-03-25T10:44:53;12.30;99.90
9824;DHT22;4951;50.778;7.196;2023-03-25T10:47:23;12.20;99.90
9824;DHT22;4951;50.778;7.196;2023-03-25T10:50:00;12.20;1.00
9824;DHT22;4951;50.778;7.196;2023-03-25T10:52:30;12.50;1.00
9824;DHT22;4951;50.778;7.196;2023-03-25T10:56:17;12.60;99.90
9824;DHT22;4951;50.778;7.196;2023-03-25T10:59:04;12.80;1.00
9824;DHT22;4951;50.778;7.196;2023-03-25T11:04:47;12.70;1.00
9824;DHT22;4951;50.778;7.196;2023-03-25T11:07:42;12.60;1.00
9824;DHT22;4951;50.778;7.196;2023-03-25T11:10:57;12.50;1.00
9824;DHT22;4951;50.778;7.196;2023-03-25T11:13:27;12.40;99.90
9824;DHT22;4951;50.778;7.196;2023-03-25T11:15:58;12.40;99.90
9824;DHT22;4951;50.778;7.196;2023-03-25T11:18:37;12.30;99.90
9824;DHT22;4951;50.778;7.196;2023-03-25T11:21:44;12.20;99.90
9824;DHT22;4951;50.778;7.196;2023-03-25T11:36:18;12.50;1.00
9824;DHT22;4951;50.778;7.196;2023-03-25T11:39:15;12.60;1.00
9824;DHT22;4951;50.778;7.196;2023-03-25T11:42:25;12.70;1.00
9824;DHT22;4951;50.778;7.196;2023-03-25T11:55:36;13.10;99.90
9824;DHT22;4951;50.778;7.196;2023-03-25T11:58:14;13.30;99.90
9824;DHT22;4951;50.778;7.196;2023-03-25T12:00:59;13.40;69.90
9824;DHT22;4951;50.778;7.196;2023-03-25T12:03:31;13.50;32.80
9824;DHT22;4951;50.778;7.196;2023-03-25T12:06:04;13.60;1.00
9824;DHT22;4951;50.778;7.196;2023-03-25T12:08:41;13.60;1.00
9824;DHT22;4951;50.778;7.196;2023-03-25T12:11:42;13.70;1.00
9824;DHT22;4951;50.778;7.196;2023-03-25T12:14:27;13.60;1.00
9824;DHT22;4951;50.778;7.196;2023-03-25T12:17:49;13.50;1.00
9824;DHT22;4951;50.778;7.196;2023-03-25T12:20:36;13.30;1.00
9824;DHT22;4951;50.778;7.196;2023-03-25T12:23:26;13.20;1.00
9824;DHT22;4951;50.778;7.196;2023-03-25T12:26:16;13.30;1.00
9824;DHT22;4951;50.778;7.196;2023-03-25T12:29:18;13.40;1.00
9824;DHT22;4951;50.778;7.196;2023-03-25T12:32:01;13.80;1.00
9824;DHT22;4951;50.778;7.196;2023-03-25T12:35:03;14.30;1.00
9824;DHT22;4951;50.778;7.196;2023-03-25T12:37:40;14.50;1.00
9824;DHT22;4951;50.778;7.196;2023-03-25T12:40:26;14.50;1.00
9824;DHT22;4951;50.778;7.196;2023-03-25T12:43:03;14.40;1.00
9824;DHT22;4951;50.778;7.196;2023-03-25T12:46:20;14.30;1.00
9824;DHT22;4951;50.778;7.196;2023-03-25T12:49:27;14.30;1.00
9824;DHT22;4951;50.778;7.196;2023-03-25T12:52:32;14.30;1.00
9824;DHT22;4951;50.778;7.196;2023-03-25T12:55:31;14.30;1.00
9824;DHT22;4951;50.778;7.196;2023-03-25T12:58:14;14.50;1.00
9824;DHT22;4951;50.778;7.196;2023-03-25T13:01:10;14.70;1.00
9824;DHT22;4951;50.778;7.196;2023-03-25T13:04:10;14.90;1.00
9824;DHT22;4951;50.778;7.196;2023-03-25T13:06:48;14.80;1.00
9824;DHT22;4951;50.778;7.196;2023-03-25T13:09:32;14.60;1.00
9824;DHT22;4951;50.778;7.196;2023-03-25T13:12:21;14.50;1.00
9824;DHT22;4951;50.778;7.196;2023-03-25T13:15:12;14.60;1.00
9824;DHT22;4951;50.778;7.196;2023-03-25T13:17:55;15.10;1.00
9824;DHT22;4951;50.778;7.196;2023-03-25T13:20:31;15.40;1.00
9824;DHT22;4951;50.778;7.196;2023-03-25T13:23:14;15.70;1.00
9824;DHT22;4951;50.778;7.196;2023-03-25T13:26:10;15.80;1.00
9824;DHT22;4951;50.778;7.196;2023-03-25T13:28:50;15.70;99.90
9824;DHT22;4951;50.778;7.196;2023-03-25T13:31:33;15.70;99.90
9824;DHT22;4951;50.778;7.196;2023-03-25T13:34:19;15.70;99.90
9824;DHT22;4951;50.778;7.196;2023-03-25T13:37:17;15.50;99.90
9824;DHT22;4951;50.778;7.196;2023-03-25T13:40:19;15.20;99.90
9824;DHT22;4951;50.778;7.196;2023-03-25T13:43:04;15.00;99.90
9824;DHT22;4951;50.778;7.196;2023-03-25T13:45:43;14.80;99.90
9824;DHT22;4951;50.778;7.196;2023-03-25T13:48:18;14.50;99.90
9824;DHT22;4951;50.778;7.196;2023-03-25T13:51:04;14.30;99.90
9824;DHT22;4951;50.778;7.196;2023-03-25T13:53:53;14.10;99.90
9824;DHT22;4951;50.778;7.196;2023-03-25T13:56:52;14.00;99.90
9824;DHT22;4951;50.778;7.196;2023-03-25T14:00:07;13.80;99.90
9824;DHT22;4951;50.778;7.196;2023-03-25T14:03:29;13.70;99.90
9824;DHT22;4951;50.778;7.196;2023-03-25T14:06:17;13.60;99.90
9824;DHT22;4951;50.778;7.196;2023-03-25T14:09:42;13.50;99.90
9824;DHT22;4951;50.778;7.196;2023-03-25T14:12:29;13.20;99.90
9824;DHT22;4951;50.778;7.196;2023-03-25T14:15:03;12.90;1.00
9824;DHT22;4951;50.778;7.196;2023-03-25T14:17:57;12.70;1.00
9824;DHT22;4951;50.778;7.196;2023-03-25T14:20:40;12.10;1.00
9824;DHT22;4951;50.778;7.196;2023-03-25T14:23:14;11.70;1.00
9824;DHT22;4951;50.778;7.196;2023-03-25T14:25:51;11.40;99.90
9824;DHT22;4951;50.778;7.196;2023-03-25T14:28:32;11.00;1.00
9824;DHT22;4951;50.778;7.196;2023-03-25T14:31:08;10.20;99.90
9824;DHT22;4951;50.778;7.196;2023-03-25T14:34:12;9.70;1.00
9824;DHT22;4951;50.778;7.196;2023-03-25T14:37:27;9.50;1.00
9824;DHT22;4951;50.778;7.196;2023-03-25T14:40:46;9.40;99.90
9824;DHT22;4951;50.778;7.196;2023-03-25T14:43:35;9.40;1.00
9824;DHT22;4951;50.778;7.196;2023-03-25T14:46:35;9.30;99.90
9824;DHT22;4951;50.778;7.196;2023-03-25T14:49:55;9.30;1.00
9824;DHT22;4951;50.778;7.196;2023-03-25T14:52:36;9.50;1.00
9824;DHT22;4951;50.778;7.196;2023-03-25T14:55:18;10.60;1.00
9824;DHT22;4951;50.778;7.196;2023-03-25T14:58:02;11.90;1.00
9824;DHT22;4951;50.778;7.196;2023-03-25T15:01:07;12.90;1.00
9824;DHT22;4951;50.778;7.196;2023-03-25T15:03:38;13.30;99.90
9824;DHT22;4951;50.778;7.196;2023-03-25T15:06:14;13.40;1.00
9824;DHT22;4951;50.778;7.196;2023-03-25T15:08:54;13.90;99.90
9824;DHT22;4951;50.778;7.196;2023-03-25T15:11:38;14.40;1.00
9824;DHT22;4951;50.778;7.196;2023-03-25T15:14:15;14.70;1.00
9824;DHT22;4951;50.778;7.196;2023-03-25T15:17:03;14.80;99.90
9824;DHT22;4951;50.778;7.196;2023-03-25T15:20:29;14.70;1.00
9824;DHT22;4951;50.778;7.196;2023-03-25T15:23:39;14.40;99.90
9824;DHT22;4951;50.778;7.196;2023-03-25T15:26:25;13.80;99.90
9824;DHT22;4951;50.778;7.196;2023-03-25T15:29:26;13.30;99.90
9824;DHT22;4951;50.778;7.196;2023-03-25T15:32:43;12.80;1.00
9824;DHT22;4951;50.778;7.196;2023-03-25T15:36:07;12.50;1.00
9824;DHT22;4951;50.778;7.196;2023-03-25T15:39:33;13.00;1.00
9824;DHT22;4951;50.778;7.196;2023-03-25T15:55:57;13.30;99.90
9824;DHT22;4951;50.778;7.196;2023-03-25T15:58:59;13.10;99.90
9824;DHT22;4951;50.778;7.196;2023-03-25T16:02:16;12.90;1.00
9824;DHT22;4951;50.778;7.196;2023-03-25T16:05:03;12.80;1.00
9824;DHT22;4951;50.778;7.196;2023-03-25T16:08:20;12.80;1.00
9824;DHT22;4951;50.778;7.196;2023-03-25T16:10:54;12.80;1.00
9824;DHT22;4951;50.778;7.196;2023-03-25T16:13:25;12.90;1.00
9824;DHT22;4951;50.778;7.196;2023-03-25T16:15:54;13.00;1.00
9824;DHT22;4951;50.778;7.196;2023-03-25T16:18:24;13.10;1.00
9824;DHT22;4951;50.778;7.196;2023-03-25T16:20:55;13.20;1.00
9824;DHT22;4951;50.778;7.196;2023-03-25T16:23:39;13.20;1.00
9824;DHT22;4951;50.778;7.196;2023-03-25T16:26:12;13.20;99.90
9824;DHT22;4951;50.778;7.196;2023-03-25T16:28:43;13.20;99.90
9824;DHT22;4951;50.778;7.196;2023-03-25T16:31:27;13.10;99.90
9824;DHT22;4951;50.778;7.196;2023-03-25T16:34:17;13.00;99.90
9824;DHT22;4951;50.778;7.196;2023-03-25T16:36:48;12.90;94.00
9824;DHT22;4951;50.778;7.196;2023-03-25T16:39:38;12.80;1.00
9824;DHT22;4951;50.778;7.196;2023-03-25T16:42:35;12.70;1.00
9824;DHT22;4951;50.778;7.196;2023-03-25T16:45:03;12.80;1.00
9824;DHT22;4951;50.778;7.196;2023-03-25T16:51:17;12.70;1.00
9824;DHT22;4951;50.778;7.196;2023-03-25T16:55:07;12.70;1.00
9824;DHT22;4951;50.778;7.196;2023-03-25T16:57:57;12.70;1.00
9824;DHT22;4951;50.778;7.196;2023-03-25T17:01:13;12.60;1.00
9824;DHT22;4951;50.778;7.196;2023-03-25T17:04:26;12.50;1.00
9824;DHT22;4951;50.778;7.196;2023-03-25T17:07:39;12.40;1.00
9824;DHT22;4951;50.778;7.196;2023-03-25T17:10:48;12.30;1.00
9824;DHT22;4951;50.778;7.196;2023-03-25T17:13:29;12.30;1.00
9824;DHT22;4951;50.778;7.196;2023-03-25T17:16:41;12.20;1.00
9824;DHT22;4951;50.778;7.196;2023-03-25T17:19:13;12.20;1.00
9824;DHT22;4951;50.778;7.196;2023-03-25T17:22:36;12.20;1.00
9824;DHT22;4951;50.778;7.196;2023-03-25T17:29:05;12.10;1.00
9824;DHT22;4951;50.778;7.196;2023-03-25T17:31:48;12.10;1.00
9824;DHT22;4951;50.778;7.196;2023-03-25T17:34:31;12.10;1.00
9824;DHT22;4951;50.778;7.196;2023-03-25T17:37:11;12.00;1.00
9824;DHT22;4951;50.778;7.196;2023-03-25T17:39:47;12.00;1.00
9824;DHT22;4951;50.778;7.196;2023-03-25T17:42:23;12.00;1.00
9824;DHT22;4951;50.778;7.196;2023-03-25T17:44:56;11.80;1.00
9824;DHT22;4951;50.778;7.196;2023-03-25T17:47:33;11.60;1.00
9824;DHT22;4951;50.778;7.196;2023-03-25T17:50:12;11.40;88.00
9824;DHT22;4951;50.778;7.196;2023-03-25T17:52:59;11.30;99.90
9824;DHT22;4951;50.778;7.196;2023-03-25T17:55:54;11.20;1.00
9824;DHT22;4951;50.778;7.196;2023-03-25T17:58:39;11.10;1.00
9824;DHT22;4951;50.778;7.196;2023-03-25T18:01:27;11.00;1.00
9824;DHT22;4951;50.778;7.196;2023-03-25T18:04:05;11.00;1.00
9824;DHT22;4951;50.778;7.196;2023-03-25T18:06:38;11.00;22.80
9824;DHT22;4951;50.778;7.196;2023-03-25T18:09:13;11.00;90.90
9824;DHT22;4951;50.778;7.196;2023-03-25T18:11:42;10.90;99.90
9824;DHT22;4951;50.778;7.196;2023-03-25T18:14:17;10.90;99.90
9824;DHT22;4951;50.778;7.196;2023-03-25T18:16:47;10.90;40.60
9824;DHT22;4951;50.778;7.196;2023-03-25T18:19:38;10.90;10.40
9824;DHT22;4951;50.778;7.196;2023-03-25T18:22:26;10.90;19.50
9824;DHT22;4951;50.778;7.196;2023-03-25T18:25:21;10.90;1.00
9824;DHT22;4951;50.778;7.196;2023-03-25T18:28:00;10.90;1.00
9824;DHT22;4951;50.778;7.196;2023-03-25T18:30:44;10.90;1.00
9824;DHT22;4951;50.778;7.196;2023-03-25T18:33:30;10.90;1.00
9824;DHT22;4951;50.778;7.196;2023-03-25T18:36:14;10.90;1.00
9824;DHT22;4951;50.778;7.196;2023-03-25T18:38:44;10.90;1.00
9824;DHT22;4951;50.778;7.196;2023-03-25T18:41:20;10.90;1.00
9824;DHT22;4951;50.778;7.196;2023-03-25T18:44:01;10.90;1.00
9824;DHT22;4951;50.778;7.196;2023-03-25T18:46:32;10.90;1.00
9824;DHT22;4951;50.778;7.196;2023-03-25T18:49:18;10.90;1.00
9824;DHT22;4951;50.778;7.196;2023-03-25T18:51:46;10.90;1.00
9824;DHT22;4951;50.778;7.196;2023-03-25T18:54:18;10.90;49.00
9824;DHT22;4951;50.778;7.196;2023-03-25T18:56:51;10.80;99.90
9824;DHT22;4951;50.778;7.196;2023-03-25T18:59:19;10.80;99.90
9824;DHT22;4951;50.778;7.196;2023-03-25T19:01:49;10.80;99.90
9824;DHT22;4951;50.778;7.196;2023-03-25T19:04:34;10.80;99.90
9824;DHT22;4951;50.778;7.196;2023-03-25T19:07:05;10.80;99.90
9824;DHT22;4951;50.778;7.196;2023-03-25T19:12:47;10.70;1.00
9824;DHT22;4951;50.778;7.196;2023-03-25T19:15:20;10.70;1.00
9824;DHT22;4951;50.778;7.196;2023-03-25T19:18:02;10.70;1.00
9824;DHT22;4951;50.778;7.196;2023-03-25T19:20:39;10.70;1.00
9824;DHT22;4951;50.778;7.196;2023-03-25T19:23:15;10.60;99.90
9824;DHT22;4951;50.778;7.196;2023-03-25T19:25:49;10.50;99.90
9824;DHT22;4951;50.778;7.196;2023-03-25T19:28:31;10.40;1.00
9824;DHT22;4951;50.778;7.196;2023-03-25T19:31:03;10.20;99.90
9824;DHT22;4951;50.778;7.196;2023-03-25T19:33:50;10.10;99.90
9824;DHT22;4951;50.778;7.196;2023-03-25T19:36:19;9.90;99.90
9824;DHT22;4951;50.778;7.196;2023-03-25T19:39:06;9.80;1.00
9824;DHT22;4951;50.778;7.196;2023-03-25T19:42:23;9.80;99.90
9824;DHT22;4951;50.778;7.196;2023-03-25T19:44:52;9.70;1.00
9824;DHT22;4951;50.778;7.196;2023-03-25T19:47:28;9.60;1.00
9824;DHT22;4951;50.778;7.196;2023-03-25T19:49:58;9.50;1.00
9824;DHT22;4951;50.778;7.196;2023-03-25T19:52:33;9.50;1.00